sensor_id;sensor_type;location;lat;lon;timestamp;temperature;humidity
58519;DHT22;44310;48.106;12.008;2023-05-21T00:02:17;18.10;91.80
58519;DHT22;44310;48.106;12.008;2023-05-21T00:04:44;18.10;91.80
58519;DHT22;44310;48.106;12.008;2023-05-21T00:07:12;18.10;91.80
58519;DHT22;44310;48.106;12.008;2023-05-21T00:09:41;18.20;91.80
58519;DHT22;44310;48.106;12.008;2023-05-21T00:12:08;18.00;92.00
58519;DHT22;44310;48.106;12.008;2023-05-21T00:14:35;18.10;91.90
58519;DHT22;44310;48.106;12.008;2023-05-21T00:17:03;18.10;92.00
58519;DHT22;44310;48.106;12.008;2023-05-21T00:19:30;18.20;92.00
58519;DHT22;44310;48.106;12.008;2023-05-21T00:21:59;18.10;92.00
58519;DHT22;44310;48.106;12.008;2023-05-21T00:24:30;18.10;92.00
58519;DHT22;44310;48.106;12.008;2023-05-21T00:26:57;18.10;92.00
58519;DHT22;44310;48.106;12.008;2023-05-21T00:29:24;18.10;92.10
58519;DHT22;44310;48.106;12.008;2023-05-21T00:31:53;18.10;92.00
58519;DHT22;44310;48.106;12.008;2023-05-21T00:34:21;18.10;91.90
58519;DHT22;44310;48.106;12.008;2023-05-21T00:36:49;18.10;91.70
58519;DHT22;44310;48.106;12.008;2023-05-21T00:39:16;18.00;91.50
58519;DHT22;44310;48.106;12.008;2023-05-21T00:41:43;18.00;91.50
58519;DHT22;44310;48.106;12.008;2023-05-21T00:44:12;17.40;91.40
58519;DHT22;44310;48.106;12.008;2023-05-21T00:46:40;18.00;91.40
58519;DHT22;44310;48.106;12.008;2023-05-21T00:49:07;17.90;91.30
58519;DHT22;44310;48.106;12.008;2023-05-21T00:51:35;17.90;91.30
58519;DHT22;44310;48.106;12.008;2023-05-21T00:54:02;17.90;91.30
58519;DHT22;44310;48.106;12.008;2023-05-21T00:56:30;17.90;91.40
58519;DHT22;44310;48.106;12.008;2023-05-21T00:58:57;17.90;91.00
58519;DHT22;44310;48.106;12.008;2023-05-21T01:01:25;17.90;91.00
58519;DHT22;44310;48.106;12.008;2023-05-21T01:03:53;17.90;91.20
58519;DHT22;44310;48.106;12.008;2023-05-21T01:06:23;17.90;91.40
58519;DHT22;44310;48.106;12.008;2023-05-21T01:08:50;18.00;91.40
58519;DHT22;44310;48.106;12.008;2023-05-21T01:11:18;18.10;91.40
58519;DHT22;44310;48.106;12.008;2023-05-21T01:13:48;18.00;91.20
58519;DHT22;44310;48.106;12.008;2023-05-21T01:16:16;18.10;91.20
58519;DHT22;44310;48.106;12.008;2023-05-21T01:18:43;17.90;91.00
58519;DHT22;44310;48.106;12.008;2023-05-21T01:21:11;18.00;90.90
58519;DHT22;44310;48.106;12.008;2023-05-21T01:23:39;18.00;90.80
58519;DHT22;44310;48.106;12.008;2023-05-21T01:26:06;18.50;90.80
58519;DHT22;44310;48.106;12.008;2023-05-21T01:28:34;17.90;90.50
58519;DHT22;44310;48.106;12.008;2023-05-21T01:31:15;17.90;90.30
58519;DHT22;44310;48.106;12.008;2023-05-21T01:33:49;18.00;90.30
58519;DHT22;44310;48.106;12.008;2023-05-21T01:36:21;17.90;90.20
58519;DHT22;44310;48.106;12.008;2023-05-21T01:39:01;17.90;90.40
58519;DHT22;44310;48.106;12.008;2023-05-21T01:41:33;17.90;90.00
58519;DHT22;44310;48.106;12.008;2023-05-21T01:44:04;17.80;89.90
58519;DHT22;44310;48.106;12.008;2023-05-21T01:46:33;17.90;89.80
58519;DHT22;44310;48.106;12.008;2023-05-21T01:49:04;17.80;89.70
58519;DHT22;44310;48.106;12.008;2023-05-21T01:51:32;17.90;89.90
58519;DHT22;44310;48.106;12.008;2023-05-21T01:53:59;17.90;90.10
58519;DHT22;44310;48.106;12.008;2023-05-21T01:56:27;17.90;90.20
58519;DHT22;44310;48.106;12.008;2023-05-21T01:58:57;18.30;90.20
58519;DHT22;44310;48.106;12.008;2023-05-21T02:01:26;18.20;90.00
58519;DHT22;44310;48.106;12.008;2023-05-21T02:03:56;18.00;89.80
58519;DHT22;44310;48.106;12.008;2023-05-21T02:06:24;18.00;89.60
58519;DHT22;44310;48.106;12.008;2023-05-21T02:08:51;18.00;89.30
58519;DHT22;44310;48.106;12.008;2023-05-21T02:11:18;18.00;89.10
58519;DHT22;44310;48.106;12.008;2023-05-21T02:13:45;18.10;88.90
58519;DHT22;44310;48.106;12.008;2023-05-21T02:16:12;18.00;88.70
58519;DHT22;44310;48.106;12.008;2023-05-21T02:18:41;18.00;88.70
58519;DHT22;44310;48.106;12.008;2023-05-21T02:21:12;18.00;88.90
58519;DHT22;44310;48.106;12.008;2023-05-21T02:23:40;18.00;89.00
58519;DHT22;44310;48.106;12.008;2023-05-21T02:26:08;18.00;89.00
58519;DHT22;44310;48.106;12.008;2023-05-21T02:28:35;18.00;89.00
58519;DHT22;44310;48.106;12.008;2023-05-21T02:31:02;17.70;88.80
58519;DHT22;44310;48.106;12.008;2023-05-21T02:33:29;17.90;88.80
58519;DHT22;44310;48.106;12.008;2023-05-21T02:35:57;17.90;88.70
58519;DHT22;44310;48.106;12.008;2023-05-21T02:38:24;17.90;88.70
58519;DHT22;44310;48.106;12.008;2023-05-21T02:40:51;17.90;88.60
58519;DHT22;44310;48.106;12.008;2023-05-21T02:43:19;17.90;88.50
58519;DHT22;44310;48.106;12.008;2023-05-21T02:45:46;17.90;89.10
58519;DHT22;44310;48.106;12.008;2023-05-21T02:48:13;17.90;89.00
58519;DHT22;44310;48.106;12.008;2023-05-21T02:50:41;18.30;89.30
58519;DHT22;44310;48.106;12.008;2023-05-21T02:53:08;18.00;89.20
58519;DHT22;44310;48.106;12.008;2023-05-21T02:55:35;18.00;89.00
58519;DHT22;44310;48.106;12.008;2023-05-21T02:58:03;18.00;88.80
58519;DHT22;44310;48.106;12.008;2023-05-21T03:00:30;18.00;88.80
58519;DHT22;44310;48.106;12.008;2023-05-21T03:02:58;17.90;88.70
58519;DHT22;44310;48.106;12.008;2023-05-21T03:05:26;18.00;88.70
58519;DHT22;44310;48.106;12.008;2023-05-21T03:07:53;18.00;88.60
58519;DHT22;44310;48.106;12.008;2023-05-21T03:10:20;18.10;88.60
58519;DHT22;44310;48.106;12.008;2023-05-21T03:12:47;18.10;88.50
58519;DHT22;44310;48.106;12.008;2023-05-21T03:15:15;18.60;88.70
58519;DHT22;44310;48.106;12.008;2023-05-21T03:17:42;18.00;88.60
58519;DHT22;44310;48.106;12.008;2023-05-21T03:20:10;18.00;88.60
58519;DHT22;44310;48.106;12.008;2023-05-21T03:22:42;18.00;88.50
58519;DHT22;44310;48.106;12.008;2023-05-21T03:25:13;18.00;88.40
58519;DHT22;44310;48.106;12.008;2023-05-21T03:27:40;18.00;88.40
58519;DHT22;44310;48.106;12.008;2023-05-21T03:30:08;18.10;88.60
58519;DHT22;44310;48.106;12.008;2023-05-21T03:32:35;18.00;88.40
58519;DHT22;44310;48.106;12.008;2023-05-21T03:35:07;18.00;88.40
58519;DHT22;44310;48.106;12.008;2023-05-21T03:37:34;18.00;88.30
58519;DHT22;44310;48.106;12.008;2023-05-21T03:40:01;18.00;88.20
58519;DHT22;44310;48.106;12.008;2023-05-21T03:42:29;18.00;87.80
58519;DHT22;44310;48.106;12.008;2023-05-21T03:44:56;18.00;87.50
58519;DHT22;44310;48.106;12.008;2023-05-21T03:47:23;17.90;87.30
58519;DHT22;44310;48.106;12.008;2023-05-21T03:49:50;17.90;87.00
58519;DHT22;44310;48.106;12.008;2023-05-21T03:52:18;17.90;87.10
58519;DHT22;44310;48.106;12.008;2023-05-21T03:54:45;17.90;87.00
58519;DHT22;44310;48.106;12.008;2023-05-21T03:57:12;17.90;86.90
58519;DHT22;44310;48.106;12.008;2023-05-21T03:59:39;17.80;86.60
58519;DHT22;44310;48.106;12.008;2023-05-21T04:02:06;17.90;86.70
58519;DHT22;44310;48.106;12.008;2023-05-21T04:04:33;17.90;86.90
58519;DHT22;44310;48.106;12.008;2023-05-21T04:07:01;17.90;86.50
58519;DHT22;44310;48.106;12.008;2023-05-21T04:09:30;17.90;86.40
58519;DHT22;44310;48.106;12.008;2023-05-21T04:11:57;17.80;86.30
58519;DHT22;44310;48.106;12.008;2023-05-21T04:14:24;17.90;86.60
58519;DHT22;44310;48.106;12.008;2023-05-21T04:16:52;17.90;86.80
58519;DHT22;44310;48.106;12.008;2023-05-21T04:19:19;17.90;86.70
58519;DHT22;44310;48.106;12.008;2023-05-21T04:21:46;17.80;86.40
58519;DHT22;44310;48.106;12.008;2023-05-21T04:24:13;18.00;86.30
58519;DHT22;44310;48.106;12.008;2023-05-21T04:26:40;18.00;86.20
58519;DHT22;44310;48.106;12.008;2023-05-21T04:29:08;18.00;86.60
58519;DHT22;44310;48.106;12.008;2023-05-21T04:31:35;17.90;85.70
58519;DHT22;44310;48.106;12.008;2023-05-21T04:34:03;18.50;85.80
58519;DHT22;44310;48.106;12.008;2023-05-21T04:36:30;17.90;85.50
58519;DHT22;44310;48.106;12.008;2023-05-21T04:39:00;18.00;85.40
58519;DHT22;44310;48.106;12.008;2023-05-21T04:41:28;17.90;85.20
58519;DHT22;44310;48.106;12.008;2023-05-21T04:43:55;18.00;85.30
58519;DHT22;44310;48.106;12.008;2023-05-21T04:46:22;18.00;85.10
58519;DHT22;44310;48.106;12.008;2023-05-21T04:48:51;17.90;84.90
58519;DHT22;44310;48.106;12.008;2023-05-21T04:51:21;17.10;84.40
58519;DHT22;44310;48.106;12.008;2023-05-21T04:53:50;17.80;84.70
58519;DHT22;44310;48.106;12.008;2023-05-21T04:56:17;18.00;84.70
58519;DHT22;44310;48.106;12.008;2023-05-21T04:58:45;17.90;84.70
58519;DHT22;44310;48.106;12.008;2023-05-21T05:01:14;17.90;84.70
58519;DHT22;44310;48.106;12.008;2023-05-21T05:03:41;18.00;84.70
58519;DHT22;44310;48.106;12.008;2023-05-21T05:06:08;18.00;84.60
58519;DHT22;44310;48.106;12.008;2023-05-21T05:08:36;18.00;84.70
58519;DHT22;44310;48.106;12.008;2023-05-21T05:11:03;18.00;84.80
58519;DHT22;44310;48.106;12.008;2023-05-21T05:13:30;18.00;84.60
58519;DHT22;44310;48.106;12.008;2023-05-21T05:15:57;18.00;84.60
58519;DHT22;44310;48.106;12.008;2023-05-21T05:18:26;18.10;84.80
58519;DHT22;44310;48.106;12.008;2023-05-21T05:20:53;18.00;84.70
58519;DHT22;44310;48.106;12.008;2023-05-21T05:23:20;18.80;85.30
58519;DHT22;44310;48.106;12.008;2023-05-21T05:25:47;17.80;84.80
58519;DHT22;44310;48.106;12.008;2023-05-21T05:28:15;18.00;85.00
58519;DHT22;44310;48.106;12.008;2023-05-21T05:30:42;18.10;85.10
58519;DHT22;44310;48.106;12.008;2023-05-21T05:33:09;18.10;85.30
58519;DHT22;44310;48.106;12.008;2023-05-21T05:35:37;18.10;85.30
58519;DHT22;44310;48.106;12.008;2023-05-21T05:38:05;18.10;85.20
58519;DHT22;44310;48.106;12.008;2023-05-21T05:40:34;18.10;85.30
58519;DHT22;44310;48.106;12.008;2023-05-21T05:43:01;18.10;85.20
58519;DHT22;44310;48.106;12.008;2023-05-21T05:45:29;18.10;85.20
58519;DHT22;44310;48.106;12.008;2023-05-21T05:47:56;18.10;85.30
58519;DHT22;44310;48.106;12.008;2023-05-21T05:50:23;18.00;85.10
58519;DHT22;44310;48.106;12.008;2023-05-21T05:52:50;18.10;85.10
58519;DHT22;44310;48.106;12.008;2023-05-21T05:55:17;18.00;84.90
58519;DHT22;44310;48.106;12.008;2023-05-21T05:57:45;18.10;84.80
58519;DHT22;44310;48.106;12.008;2023-05-21T06:00:12;18.00;84.80
58519;DHT22;44310;48.106;12.008;2023-05-21T06:02:39;18.00;84.70
58519;DHT22;44310;48.106;12.008;2023-05-21T06:05:07;18.00;84.70
58519;DHT22;44310;48.106;12.008;2023-05-21T06:07:39;18.10;84.80
58519;DHT22;44310;48.106;12.008;2023-05-21T06:10:07;18.10;84.80
58519;DHT22;44310;48.106;12.008;2023-05-21T06:12:34;18.10;84.70
58519;DHT22;44310;48.106;12.008;2023-05-21T06:15:01;18.00;84.60
58519;DHT22;44310;48.106;12.008;2023-05-21T06:17:29;18.10;84.40
58519;DHT22;44310;48.106;12.008;2023-05-21T06:19:56;18.00;84.20
58519;DHT22;44310;48.106;12.008;2023-05-21T06:22:23;18.00;84.20
58519;DHT22;44310;48.106;12.008;2023-05-21T06:24:51;18.10;84.40
58519;DHT22;44310;48.106;12.008;2023-05-21T06:27:19;18.10;84.30
58519;DHT22;44310;48.106;12.008;2023-05-21T06:29:46;18.10;84.40
58519;DHT22;44310;48.106;12.008;2023-05-21T06:32:13;18.00;84.30
58519;DHT22;44310;48.106;12.008;2023-05-21T06:34:40;18.00;84.40
58519;DHT22;44310;48.106;12.008;2023-05-21T06:37:07;18.10;84.60
58519;DHT22;44310;48.106;12.008;2023-05-21T06:39:35;18.00;84.70
58519;DHT22;44310;48.106;12.008;2023-05-21T06:42:02;18.00;84.60
58519;DHT22;44310;48.106;12.008;2023-05-21T06:44:29;18.10;84.70
58519;DHT22;44310;48.106;12.008;2023-05-21T06:46:56;18.10;84.80
58519;DHT22;44310;48.106;12.008;2023-05-21T06:49:23;18.10;84.80
58519;DHT22;44310;48.106;12.008;2023-05-21T06:51:59;18.10;84.90
58519;DHT22;44310;48.106;12.008;2023-05-21T06:54:27;18.00;84.90
58519;DHT22;44310;48.106;12.008;2023-05-21T06:56:54;18.10;85.00
58519;DHT22;44310;48.106;12.008;2023-05-21T06:59:21;18.10;84.80
58519;DHT22;44310;48.106;12.008;2023-05-21T07:01:48;18.10;85.10
58519;DHT22;44310;48.106;12.008;2023-05-21T07:04:16;18.10;85.20
58519;DHT22;44310;48.106;12.008;2023-05-21T07:06:43;18.00;85.10
58519;DHT22;44310;48.106;12.008;2023-05-21T07:09:10;17.90;84.90
58519;DHT22;44310;48.106;12.008;2023-05-21T07:11:37;17.80;85.60
58519;DHT22;44310;48.106;12.008;2023-05-21T07:14:04;17.80;85.10
58519;DHT22;44310;48.106;12.008;2023-05-21T07:16:32;17.80;85.80
58519;DHT22;44310;48.106;12.008;2023-05-21T07:18:59;17.90;86.20
58519;DHT22;44310;48.106;12.008;2023-05-21T07:21:26;18.00;86.50
58519;DHT22;44310;48.106;12.008;2023-05-21T07:23:53;18.10;86.70
58519;DHT22;44310;48.106;12.008;2023-05-21T07:26:21;18.10;87.10
58519;DHT22;44310;48.106;12.008;2023-05-21T07:28:48;18.20;87.20
58519;DHT22;44310;48.106;12.008;2023-05-21T07:31:15;18.20;87.20
58519;DHT22;44310;48.106;12.008;2023-05-21T07:33:42;18.90;87.60
58519;DHT22;44310;48.106;12.008;2023-05-21T07:36:09;18.30;87.40
58519;DHT22;44310;48.106;12.008;2023-05-21T07:38:36;18.30;87.40
58519;DHT22;44310;48.106;12.008;2023-05-21T07:41:05;18.30;87.60
58519;DHT22;44310;48.106;12.008;2023-05-21T07:43:33;18.30;87.80
58519;DHT22;44310;48.106;12.008;2023-05-21T07:46:00;18.40;88.10
58519;DHT22;44310;48.106;12.008;2023-05-21T07:48:27;18.40;88.00
58519;DHT22;44310;48.106;12.008;2023-05-21T07:50:54;18.30;88.20
58519;DHT22;44310;48.106;12.008;2023-05-21T07:53:22;18.70;88.30
58519;DHT22;44310;48.106;12.008;2023-05-21T07:55:49;18.40;88.20
58519;DHT22;44310;48.106;12.008;2023-05-21T07:58:17;18.40;88.30
58519;DHT22;44310;48.106;12.008;2023-05-21T08:00:46;18.30;88.20
58519;DHT22;44310;48.106;12.008;2023-05-21T08:03:14;18.30;88.10
58519;DHT22;44310;48.106;12.008;2023-05-21T08:05:45;18.40;88.20
58519;DHT22;44310;48.106;12.008;2023-05-21T08:08:18;18.40;88.20
58519;DHT22;44310;48.106;12.008;2023-05-21T08:10:45;18.10;88.10
58519;DHT22;44310;48.106;12.008;2023-05-21T08:13:16;18.30;88.20
58519;DHT22;44310;48.106;12.008;2023-05-21T08:15:44;18.40;88.30
58519;DHT22;44310;48.106;12.008;2023-05-21T08:18:11;18.30;88.40
58519;DHT22;44310;48.106;12.008;2023-05-21T08:20:38;18.30;88.50
58519;DHT22;44310;48.106;12.008;2023-05-21T08:23:06;18.30;88.50
58519;DHT22;44310;48.106;12.008;2023-05-21T08:25:33;18.30;88.30
58519;DHT22;44310;48.106;12.008;2023-05-21T08:28:00;18.30;88.20
58519;DHT22;44310;48.106;12.008;2023-05-21T08:30:27;18.30;88.30
58519;DHT22;44310;48.106;12.008;2023-05-21T08:32:54;18.40;88.50
58519;DHT22;44310;48.106;12.008;2023-05-21T08:35:22;18.30;88.60
58519;DHT22;44310;48.106;12.008;2023-05-21T08:37:49;18.40;88.70
58519;DHT22;44310;48.106;12.008;2023-05-21T08:40:16;18.40;88.40
58519;DHT22;44310;48.106;12.008;2023-05-21T08:42:44;18.40;88.30
58519;DHT22;44310;48.106;12.008;2023-05-21T08:45:12;18.40;88.30
58519;DHT22;44310;48.106;12.008;2023-05-21T08:47:41;18.40;88.40
58519;DHT22;44310;48.106;12.008;2023-05-21T08:50:15;18.40;88.40
58519;DHT22;44310;48.106;12.008;2023-05-21T08:52:42;18.40;88.50
58519;DHT22;44310;48.106;12.008;2023-05-21T08:55:09;18.50;88.60
58519;DHT22;44310;48.106;12.008;2023-05-21T08:57:41;18.40;89.20
58519;DHT22;44310;48.106;12.008;2023-05-21T09:00:09;18.40;88.90
58519;DHT22;44310;48.106;12.008;2023-05-21T09:02:38;18.40;89.20
58519;DHT22;44310;48.106;12.008;2023-05-21T09:05:10;18.30;89.30
58519;DHT22;44310;48.106;12.008;2023-05-21T09:07:58;18.40;89.50
58519;DHT22;44310;48.106;12.008;2023-05-21T09:10:34;18.30;89.50
58519;DHT22;44310;48.106;12.008;2023-05-21T09:13:02;18.60;89.60
58519;DHT22;44310;48.106;12.008;2023-05-21T09:15:30;18.40;89.60
58519;DHT22;44310;48.106;12.008;2023-05-21T09:17:57;18.40;90.00
58519;DHT22;44310;48.106;12.008;2023-05-21T09:20:26;18.30;89.90
58519;DHT22;44310;48.106;12.008;2023-05-21T09:22:53;18.70;90.10
58519;DHT22;44310;48.106;12.008;2023-05-21T09:25:25;18.30;90.00
58519;DHT22;44310;48.106;12.008;2023-05-21T09:27:58;18.50;90.10
58519;DHT22;44310;48.106;12.008;2023-05-21T09:30:26;18.30;90.20
58519;DHT22;44310;48.106;12.008;2023-05-21T09:32:58;18.30;90.20
58519;DHT22;44310;48.106;12.008;2023-05-21T09:35:26;18.30;90.20
58519;DHT22;44310;48.106;12.008;2023-05-21T09:37:54;18.30;90.30
58519;DHT22;44310;48.106;12.008;2023-05-21T09:40:23;18.30;90.50
58519;DHT22;44310;48.106;12.008;2023-05-21T09:42:52;18.40;90.70
58519;DHT22;44310;48.106;12.008;2023-05-21T09:45:21;18.70;90.90
58519;DHT22;44310;48.106;12.008;2023-05-21T09:47:50;18.40;90.80
58519;DHT22;44310;48.106;12.008;2023-05-21T09:50:20;18.60;90.90
58519;DHT22;44310;48.106;12.008;2023-05-21T09:52:49;18.50;90.80
58519;DHT22;44310;48.106;12.008;2023-05-21T09:55:21;18.50;90.80
58519;DHT22;44310;48.106;12.008;2023-05-21T09:57:50;18.50;90.80
58519;DHT22;44310;48.106;12.008;2023-05-21T10:00:20;18.50;90.70
58519;DHT22;44310;48.106;12.008;2023-05-21T10:02:53;18.50;90.80
58519;DHT22;44310;48.106;12.008;2023-05-21T10:05:28;18.40;90.80
58519;DHT22;44310;48.106;12.008;2023-05-21T10:08:00;18.40;90.90
58519;DHT22;44310;48.106;12.008;2023-05-21T10:10:30;18.50;90.90
58519;DHT22;44310;48.106;12.008;2023-05-21T10:13:04;19.00;91.00
58519;DHT22;44310;48.106;12.008;2023-05-21T10:15:37;18.40;90.80
58519;DHT22;44310;48.106;12.008;2023-05-21T10:18:06;18.50;90.90
58519;DHT22;44310;48.106;12.008;2023-05-21T10:20:35;18.50;90.90
58519;DHT22;44310;48.106;12.008;2023-05-21T10:23:04;18.00;90.80
58519;DHT22;44310;48.106;12.008;2023-05-21T10:25:31;18.80;91.00
58519;DHT22;44310;48.106;12.008;2023-05-21T10:27:59;18.50;90.90
58519;DHT22;44310;48.106;12.008;2023-05-21T10:30:26;18.50;90.70
58519;DHT22;44310;48.106;12.008;2023-05-21T10:32:55;18.40;90.50
58519;DHT22;44310;48.106;12.008;2023-05-21T10:35:23;18.30;90.60
58519;DHT22;44310;48.106;12.008;2023-05-21T10:37:50;18.50;90.90
58519;DHT22;44310;48.106;12.008;2023-05-21T10:40:19;18.50;90.80
58519;DHT22;44310;48.106;12.008;2023-05-21T11:00:16;18.50;91.00
58519;DHT22;44310;48.106;12.008;2023-05-21T11:02:48;18.50;91.00
58519;DHT22;44310;48.106;12.008;2023-05-21T11:05:37;18.50;91.00
58519;DHT22;44310;48.106;12.008;2023-05-21T11:08:05;18.60;90.60
58519;DHT22;44310;48.106;12.008;2023-05-21T11:10:56;18.50;90.50
58519;DHT22;44310;48.106;12.008;2023-05-21T11:13:25;18.40;90.50
58519;DHT22;44310;48.106;12.008;2023-05-21T11:21:14;19.10;91.00
58519;DHT22;44310;48.106;12.008;2023-05-21T11:23:54;18.40;90.80
58519;DHT22;44310;48.106;12.008;2023-05-21T11:27:10;18.60;91.30
58519;DHT22;44310;48.106;12.008;2023-05-21T11:29:44;18.60;91.30
58519;DHT22;44310;48.106;12.008;2023-05-21T11:32:12;18.60;91.20
58519;DHT22;44310;48.106;12.008;2023-05-21T11:34:46;18.50;91.20
58519;DHT22;44310;48.106;12.008;2023-05-21T11:39:44;18.40;90.70
58519;DHT22;44310;48.106;12.008;2023-05-21T11:42:12;18.60;90.80
58519;DHT22;44310;48.106;12.008;2023-05-21T11:44:46;18.60;90.90
58519;DHT22;44310;48.106;12.008;2023-05-21T11:47:16;18.60;90.70
58519;DHT22;44310;48.106;12.008;2023-05-21T11:49:44;18.60;90.90
58519;DHT22;44310;48.106;12.008;2023-05-21T11:52:12;18.60;90.90
58519;DHT22;44310;48.106;12.008;2023-05-21T11:54:47;18.60;91.00
58519;DHT22;44310;48.106;12.008;2023-05-21T11:57:17;18.60;90.90
58519;DHT22;44310;48.106;12.008;2023-05-21T11:59:45;18.60;90.80
58519;DHT22;44310;48.106;12.008;2023-05-21T12:02:14;18.10;90.80
58519;DHT22;44310;48.106;12.008;2023-05-21T12:04:45;18.90;90.90
58519;DHT22;44310;48.106;12.008;2023-05-21T12:07:15;18.70;91.10
58519;DHT22;44310;48.106;12.008;2023-05-21T12:09:50;18.60;91.10
58519;DHT22;44310;48.106;12.008;2023-05-21T12:12:19;18.60;91.00
58519;DHT22;44310;48.106;12.008;2023-05-21T12:14:49;18.60;91.10
58519;DHT22;44310;48.106;12.008;2023-05-21T12:17:24;18.60;91.50
58519;DHT22;44310;48.106;12.008;2023-05-21T12:19:56;18.60;91.20
58519;DHT22;44310;48.106;12.008;2023-05-21T12:22:24;18.60;91.20
58519;DHT22;44310;48.106;12.008;2023-05-21T12:24:51;18.60;91.10
58519;DHT22;44310;48.106;12.008;2023-05-21T12:27:21;18.60;91.10
58519;DHT22;44310;48.106;12.008;2023-05-21T12:29:49;18.60;91.10
58519;DHT22;44310;48.106;12.008;2023-05-21T12:32:20;18.60;91.10
58519;DHT22;44310;48.106;12.008;2023-05-21T12:34:53;18.60;91.20
58519;DHT22;44310;48.106;12.008;2023-05-21T12:37:25;18.70;91.30
58519;DHT22;44310;48.106;12.008;2023-05-21T12:39:54;18.70;91.20
58519;DHT22;44310;48.106;12.008;2023-05-21T12:42:28;18.70;91.30
58519;DHT22;44310;48.106;12.008;2023-05-21T12:44:57;19.00;91.20
58519;DHT22;44310;48.106;12.008;2023-05-21T12:47:25;19.20;90.90
58519;DHT22;44310;48.106;12.008;2023-05-21T12:49:56;18.70;90.70
58519;DHT22;44310;48.106;12.008;2023-05-21T12:52:24;18.70;90.50
58519;DHT22;44310;48.106;12.008;2023-05-21T12:54:54;18.70;90.20
58519;DHT22;44310;48.106;12.008;2023-05-21T12:57:27;18.70;90.00
58519;DHT22;44310;48.106;12.008;2023-05-21T12:59:58;18.70;89.90
58519;DHT22;44310;48.106;12.008;2023-05-21T13:02:27;18.80;88.20
58519;DHT22;44310;48.106;12.008;2023-05-21T13:04:56;18.90;81.60
58519;DHT22;44310;48.106;12.008;2023-05-21T13:07:24;18.70;82.50
58519;DHT22;44310;48.106;12.008;2023-05-21T13:09:53;18.90;85.40
58519;DHT22;44310;48.106;12.008;2023-05-21T13:12:25;18.90;85.40
58519;DHT22;44310;48.106;12.008;2023-05-21T13:14:54;18.70;85.30
58519;DHT22;44310;48.106;12.008;2023-05-21T13:17:23;18.80;85.70
58519;DHT22;44310;48.106;12.008;2023-05-21T13:20:11;19.40;86.60
58519;DHT22;44310;48.106;12.008;2023-05-21T13:22:40;18.90;87.30
58519;DHT22;44310;48.106;12.008;2023-05-21T13:25:09;18.90;86.50
58519;DHT22;44310;48.106;12.008;2023-05-21T13:27:42;18.90;86.80
58519;DHT22;44310;48.106;12.008;2023-05-21T13:30:10;18.90;86.80
58519;DHT22;44310;48.106;12.008;2023-05-21T13:32:39;18.90;85.00
58519;DHT22;44310;48.106;12.008;2023-05-21T13:35:07;18.90;85.40
58519;DHT22;44310;48.106;12.008;2023-05-21T13:37:35;19.00;85.10
58519;DHT22;44310;48.106;12.008;2023-05-21T13:40:07;19.00;85.10
58519;DHT22;44310;48.106;12.008;2023-05-21T13:42:37;18.90;85.50
58519;DHT22;44310;48.106;12.008;2023-05-21T13:45:05;18.90;86.00
58519;DHT22;44310;48.106;12.008;2023-05-21T13:47:33;18.90;86.80
58519;DHT22;44310;48.106;12.008;2023-05-21T13:50:04;18.90;87.10
58519;DHT22;44310;48.106;12.008;2023-05-21T13:52:32;18.90;87.00
58519;DHT22;44310;48.106;12.008;2023-05-21T13:54:59;18.90;87.40
58519;DHT22;44310;48.106;12.008;2023-05-21T13:57:26;18.90;87.60
58519;DHT22;44310;48.106;12.008;2023-05-21T13:59:57;18.90;87.10
58519;DHT22;44310;48.106;12.008;2023-05-21T14:02:24;18.80;87.10
58519;DHT22;44310;48.106;12.008;2023-05-21T14:04:52;18.80;87.50
58519;DHT22;44310;48.106;12.008;2023-05-21T14:07:19;19.00;87.60
58519;DHT22;44310;48.106;12.008;2023-05-21T14:09:47;19.00;87.40
58519;DHT22;44310;48.106;12.008;2023-05-21T14:12:15;19.10;87.40
58519;DHT22;44310;48.106;12.008;2023-05-21T14:14:42;19.60;87.40
58519;DHT22;44310;48.106;12.008;2023-05-21T14:17:10;18.80;86.50
58519;DHT22;44310;48.106;12.008;2023-05-21T14:19:37;18.80;86.10
58519;DHT22;44310;48.106;12.008;2023-05-21T14:22:04;18.80;85.80
58519;DHT22;44310;48.106;12.008;2023-05-21T14:24:31;18.80;85.70
58519;DHT22;44310;48.106;12.008;2023-05-21T14:26:58;18.70;86.30
58519;DHT22;44310;48.106;12.008;2023-05-21T14:29:26;18.40;85.50
58519;DHT22;44310;48.106;12.008;2023-05-21T14:31:53;18.70;86.40
58519;DHT22;44310;48.106;12.008;2023-05-21T14:34:20;18.80;86.30
58519;DHT22;44310;48.106;12.008;2023-05-21T14:36:47;18.70;85.20
58519;DHT22;44310;48.106;12.008;2023-05-21T14:39:14;18.70;84.40
58519;DHT22;44310;48.106;12.008;2023-05-21T14:41:41;18.70;85.20
58519;DHT22;44310;48.106;12.008;2023-05-21T14:44:09;18.60;84.60
58519;DHT22;44310;48.106;12.008;2023-05-21T14:46:37;18.60;84.30
58519;DHT22;44310;48.106;12.008;2023-05-21T14:49:05;18.60;84.40
58519;DHT22;44310;48.106;12.008;2023-05-21T14:51:32;18.60;83.80
58519;DHT22;44310;48.106;12.008;2023-05-21T14:53:59;18.70;84.20
58519;DHT22;44310;48.106;12.008;2023-05-21T14:56:26;18.60;83.50
58519;DHT22;44310;48.106;12.008;2023-05-21T14:58:54;18.60;84.20
58519;DHT22;44310;48.106;12.008;2023-05-21T15:01:22;18.20;84.20
58519;DHT22;44310;48.106;12.008;2023-05-21T15:03:49;18.60;83.90
58519;DHT22;44310;48.106;12.008;2023-05-21T15:06:17;18.40;84.30
58519;DHT22;44310;48.106;12.008;2023-05-21T15:08:44;18.60;84.70
58519;DHT22;44310;48.106;12.008;2023-05-21T15:11:11;18.60;84.90
58519;DHT22;44310;48.106;12.008;2023-05-21T15:13:38;18.60;84.50
58519;DHT22;44310;48.106;12.008;2023-05-21T15:16:06;18.60;84.50
58519;DHT22;44310;48.106;12.008;2023-05-21T15:18:33;18.40;84.60
58519;DHT22;44310;48.106;12.008;2023-05-21T15:21:00;18.60;84.60
58519;DHT22;44310;48.106;12.008;2023-05-21T15:23:27;18.60;84.10
58519;DHT22;44310;48.106;12.008;2023-05-21T15:25:54;18.60;83.40
58519;DHT22;44310;48.106;12.008;2023-05-21T15:28:22;18.50;84.00
58519;DHT22;44310;48.106;12.008;2023-05-21T15:30:49;18.60;83.90
58519;DHT22;44310;48.106;12.008;2023-05-21T15:33:16;18.50;83.50
58519;DHT22;44310;48.106;12.008;2023-05-21T15:35:43;18.60;83.60
58519;DHT22;44310;48.106;12.008;2023-05-21T15:38:11;18.50;83.30
58519;DHT22;44310;48.106;12.008;2023-05-21T15:40:38;18.50;82.90
58519;DHT22;44310;48.106;12.008;2023-05-21T15:43:07;18.50;83.20
58519;DHT22;44310;48.106;12.008;2023-05-21T15:45:36;18.50;82.90
58519;DHT22;44310;48.106;12.008;2023-05-21T15:48:05;18.50;83.20
58519;DHT22;44310;48.106;12.008;2023-05-21T15:50:32;18.50;83.20